sensor_id;sensor_type;location;lat;lon;timestamp;temperature;humidity
65707;SHT31;52423;43.512;5.220;2023-09-18T00:00:27;26.04;65.29
65707;SHT31;52423;43.512;5.220;2023-09-18T00:02:53;26.04;65.41
65707;SHT31;52423;43.512;5.220;2023-09-18T00:05:18;26.04;65.45
65707;SHT31;52423;43.512;5.220;2023-09-18T00:07:44;26.02;65.45
65707;SHT31;52423;43.512;5.220;2023-09-18T00:10:13;26.03;65.48
65707;SHT31;52423;43.512;5.220;2023-09-18T00:12:39;26.02;65.64
65707;SHT31;52423;43.512;5.220;2023-09-18T00:15:06;26.02;65.71
65707;SHT31;52423;43.512;5.220;2023-09-18T00:17:34;26.03;65.67
65707;SHT31;52423;43.512;5.220;2023-09-18T00:20:00;26.00;65.72
65707;SHT31;52423;43.512;5.220;2023-09-18T00:22:25;26.02;65.87
65707;SHT31;52423;43.512;5.220;2023-09-18T00:24:51;25.97;65.82
65707;SHT31;52423;43.512;5.220;2023-09-18T00:27:16;26.00;65.95
65707;SHT31;52423;43.512;5.220;2023-09-18T00:29:42;26.02;65.92
65707;SHT31;52423;43.512;5.220;2023-09-18T00:32:08;26.00;65.96
65707;SHT31;52423;43.512;5.220;2023-09-18T00:34:33;26.02;66.00
65707;SHT31;52423;43.512;5.220;2023-09-18T00:36:59;25.99;66.05
65707;SHT31;52423;43.512;5.220;2023-09-18T00:39:25;26.00;66.05
65707;SHT31;52423;43.512;5.220;2023-09-18T00:41:50;26.00;66.13
65707;SHT31;52423;43.512;5.220;2023-09-18T00:44:22;26.00;66.20
65707;SHT31;52423;43.512;5.220;2023-09-18T00:46:48;26.00;66.21
65707;SHT31;52423;43.512;5.220;2023-09-18T00:49:15;26.00;66.23
65707;SHT31;52423;43.512;5.220;2023-09-18T00:51:41;25.97;66.31
65707;SHT31;52423;43.512;5.220;2023-09-18T00:54:08;26.02;66.27
65707;SHT31;52423;43.512;5.220;2023-09-18T00:56:34;25.97;66.31
65707;SHT31;52423;43.512;5.220;2023-09-18T00:59:00;25.96;66.36
65707;SHT31;52423;43.512;5.220;2023-09-18T01:01:28;25.99;66.38
65707;SHT31;52423;43.512;5.220;2023-09-18T01:03:55;26.00;66.44
65707;SHT31;52423;43.512;5.220;2023-09-18T01:06:21;26.00;66.40
65707;SHT31;52423;43.512;5.220;2023-09-18T01:08:48;25.99;66.48
65707;SHT31;52423;43.512;5.220;2023-09-18T01:11:38;25.99;66.38
65707;SHT31;52423;43.512;5.220;2023-09-18T01:14:44;25.97;66.51
65707;SHT31;52423;43.512;5.220;2023-09-18T01:17:13;26.00;66.51
65707;SHT31;52423;43.512;5.220;2023-09-18T01:22:08;25.97;66.52
65707;SHT31;52423;43.512;5.220;2023-09-18T01:24:35;25.96;66.52
65707;SHT31;52423;43.512;5.220;2023-09-18T01:27:02;25.96;66.56
65707;SHT31;52423;43.512;5.220;2023-09-18T01:29:29;25.99;66.51
65707;SHT31;52423;43.512;5.220;2023-09-18T01:31:55;25.99;66.45
65707;SHT31;52423;43.512;5.220;2023-09-18T01:34:22;26.00;66.51
65707;SHT31;52423;43.512;5.220;2023-09-18T01:36:51;26.00;66.49
65707;SHT31;52423;43.512;5.220;2023-09-18T01:39:17;26.00;66.51
65707;SHT31;52423;43.512;5.220;2023-09-18T01:41:43;25.99;66.52
65707;SHT31;52423;43.512;5.220;2023-09-18T01:44:09;25.97;66.51
65707;SHT31;52423;43.512;5.220;2023-09-18T01:46:34;25.97;66.54
65707;SHT31;52423;43.512;5.220;2023-09-18T01:49:03;25.96;66.53
65707;SHT31;52423;43.512;5.220;2023-09-18T01:51:29;25.97;66.54
65707;SHT31;52423;43.512;5.220;2023-09-18T01:53:55;25.96;66.52
65707;SHT31;52423;43.512;5.220;2023-09-18T01:56:21;25.96;66.60
65707;SHT31;52423;43.512;5.220;2023-09-18T01:58:46;25.97;66.56
65707;SHT31;52423;43.512;5.220;2023-09-18T02:01:12;25.97;66.59
65707;SHT31;52423;43.512;5.220;2023-09-18T02:03:37;25.97;66.60
65707;SHT31;52423;43.512;5.220;2023-09-18T02:06:10;25.96;66.62
65707;SHT31;52423;43.512;5.220;2023-09-18T02:08:35;25.97;66.64
65707;SHT31;52423;43.512;5.220;2023-09-18T02:11:01;25.95;66.69
65707;SHT31;52423;43.512;5.220;2023-09-18T02:13:28;25.97;66.71
65707;SHT31;52423;43.512;5.220;2023-09-18T02:15:53;25.96;66.78
65707;SHT31;52423;43.512;5.220;2023-09-18T02:18:19;25.97;66.77
65707;SHT31;52423;43.512;5.220;2023-09-18T02:20:46;25.97;66.80
65707;SHT31;52423;43.512;5.220;2023-09-18T02:23:16;25.96;66.87
65707;SHT31;52423;43.512;5.220;2023-09-18T02:25:43;25.99;66.87
65707;SHT31;52423;43.512;5.220;2023-09-18T02:28:09;25.96;66.89
65707;SHT31;52423;43.512;5.220;2023-09-18T02:30:34;25.96;66.92
65707;SHT31;52423;43.512;5.220;2023-09-18T02:33:00;25.96;66.96
65707;SHT31;52423;43.512;5.220;2023-09-18T02:35:28;25.97;66.99
65707;SHT31;52423;43.512;5.220;2023-09-18T02:37:54;25.95;67.07
65707;SHT31;52423;43.512;5.220;2023-09-18T02:40:19;25.99;67.03
65707;SHT31;52423;43.512;5.220;2023-09-18T02:42:44;26.00;67.18
65707;SHT31;52423;43.512;5.220;2023-09-18T02:45:10;26.00;67.22
65707;SHT31;52423;43.512;5.220;2023-09-18T02:47:35;25.99;67.05
65707;SHT31;52423;43.512;5.220;2023-09-18T02:50:04;26.06;67.09
65707;SHT31;52423;43.512;5.220;2023-09-18T02:52:30;25.99;67.30
65707;SHT31;52423;43.512;5.220;2023-09-18T02:54:56;25.99;67.34
65707;SHT31;52423;43.512;5.220;2023-09-18T02:57:21;25.99;67.40
65707;SHT31;52423;43.512;5.220;2023-09-18T02:59:46;25.99;67.41
65707;SHT31;52423;43.512;5.220;2023-09-18T03:02:12;26.00;67.40
65707;SHT31;52423;43.512;5.220;2023-09-18T03:04:37;25.99;67.41
65707;SHT31;52423;43.512;5.220;2023-09-18T03:07:03;25.99;67.47
65707;SHT31;52423;43.512;5.220;2023-09-18T03:09:29;25.97;67.42
65707;SHT31;52423;43.512;5.220;2023-09-18T03:11:54;25.99;67.46
65707;SHT31;52423;43.512;5.220;2023-09-18T03:14:20;25.99;67.45
65707;SHT31;52423;43.512;5.220;2023-09-18T03:16:45;26.02;67.43
65707;SHT31;52423;43.512;5.220;2023-09-18T03:19:10;25.97;67.45
65707;SHT31;52423;43.512;5.220;2023-09-18T03:21:36;26.00;67.51
65707;SHT31;52423;43.512;5.220;2023-09-18T03:24:01;25.99;67.50
65707;SHT31;52423;43.512;5.220;2023-09-18T03:26:28;26.00;67.53
65707;SHT31;52423;43.512;5.220;2023-09-18T03:28:53;25.99;67.61
65707;SHT31;52423;43.512;5.220;2023-09-18T03:31:18;25.99;67.58
65707;SHT31;52423;43.512;5.220;2023-09-18T03:33:44;26.00;67.60
65707;SHT31;52423;43.512;5.220;2023-09-18T03:36:09;25.97;67.69
65707;SHT31;52423;43.512;5.220;2023-09-18T03:38:36;25.99;67.68
65707;SHT31;52423;43.512;5.220;2023-09-18T03:41:02;25.95;67.78
65707;SHT31;52423;43.512;5.220;2023-09-18T03:43:27;25.96;67.77
65707;SHT31;52423;43.512;5.220;2023-09-18T03:45:53;25.96;67.84
65707;SHT31;52423;43.512;5.220;2023-09-18T03:48:18;25.93;67.86
65707;SHT31;52423;43.512;5.220;2023-09-18T03:50:47;25.97;67.85
65707;SHT31;52423;43.512;5.220;2023-09-18T03:53:12;25.97;67.88
65707;SHT31;52423;43.512;5.220;2023-09-18T03:55:37;26.02;67.92
65707;SHT31;52423;43.512;5.220;2023-09-18T03:58:04;25.97;67.98
65707;SHT31;52423;43.512;5.220;2023-09-18T04:00:30;25.97;68.04
65707;SHT31;52423;43.512;5.220;2023-09-18T04:02:55;25.97;68.04
65707;SHT31;52423;43.512;5.220;2023-09-18T04:05:21;25.97;68.20
65707;SHT31;52423;43.512;5.220;2023-09-18T04:07:46;25.96;68.23
65707;SHT31;52423;43.512;5.220;2023-09-18T04:10:13;25.95;68.40
65707;SHT31;52423;43.512;5.220;2023-09-18T04:12:44;25.93;68.52
65707;SHT31;52423;43.512;5.220;2023-09-18T04:15:15;25.89;68.57
65707;SHT31;52423;43.512;5.220;2023-09-18T04:17:40;25.89;68.57
65707;SHT31;52423;43.512;5.220;2023-09-18T04:20:06;25.90;68.87
65707;SHT31;52423;43.512;5.220;2023-09-18T04:22:31;25.89;68.80
65707;SHT31;52423;43.512;5.220;2023-09-18T04:24:57;25.95;68.59
65707;SHT31;52423;43.512;5.220;2023-09-18T04:27:22;25.92;68.64
65707;SHT31;52423;43.512;5.220;2023-09-18T04:29:48;25.95;68.57
65707;SHT31;52423;43.512;5.220;2023-09-18T04:32:13;25.93;68.60
65707;SHT31;52423;43.512;5.220;2023-09-18T04:34:38;25.92;68.58
65707;SHT31;52423;43.512;5.220;2023-09-18T04:37:04;25.95;68.59
65707;SHT31;52423;43.512;5.220;2023-09-18T04:39:30;25.95;68.52
65707;SHT31;52423;43.512;5.220;2023-09-18T04:41:55;25.97;68.47
65707;SHT31;52423;43.512;5.220;2023-09-18T04:44:21;25.96;68.47
65707;SHT31;52423;43.512;5.220;2023-09-18T04:46:46;25.97;68.62
65707;SHT31;52423;43.512;5.220;2023-09-18T04:49:12;26.00;68.53
65707;SHT31;52423;43.512;5.220;2023-09-18T04:51:38;26.00;68.41
65707;SHT31;52423;43.512;5.220;2023-09-18T04:54:04;26.02;68.37
65707;SHT31;52423;43.512;5.220;2023-09-18T04:56:30;26.06;68.26
65707;SHT31;52423;43.512;5.220;2023-09-18T04:58:55;26.04;68.24
65707;SHT31;52423;43.512;5.220;2023-09-18T05:01:23;26.03;68.29
65707;SHT31;52423;43.512;5.220;2023-09-18T05:03:50;26.03;68.30
65707;SHT31;52423;43.512;5.220;2023-09-18T05:06:16;26.03;68.24
65707;SHT31;52423;43.512;5.220;2023-09-18T05:08:43;26.06;68.22
65707;SHT31;52423;43.512;5.220;2023-09-18T05:11:09;26.07;68.24
65707;SHT31;52423;43.512;5.220;2023-09-18T05:13:34;26.02;68.26
65707;SHT31;52423;43.512;5.220;2023-09-18T05:15:59;26.02;68.45
65707;SHT31;52423;43.512;5.220;2023-09-18T05:18:26;25.99;68.40
65707;SHT31;52423;43.512;5.220;2023-09-18T05:20:51;25.96;68.49
65707;SHT31;52423;43.512;5.220;2023-09-18T05:23:17;25.93;68.46
65707;SHT31;52423;43.512;5.220;2023-09-18T05:25:43;25.95;68.48
65707;SHT31;52423;43.512;5.220;2023-09-18T05:28:09;25.93;68.55
65707;SHT31;52423;43.512;5.220;2023-09-18T05:30:35;25.96;68.61
65707;SHT31;52423;43.512;5.220;2023-09-18T05:33:04;25.90;68.83
65707;SHT31;52423;43.512;5.220;2023-09-18T05:35:40;25.90;68.90
65707;SHT31;52423;43.512;5.220;2023-09-18T05:38:06;25.99;68.89
65707;SHT31;52423;43.512;5.220;2023-09-18T05:40:32;26.00;68.72
65707;SHT31;52423;43.512;5.220;2023-09-18T05:42:57;26.02;68.68
65707;SHT31;52423;43.512;5.220;2023-09-18T05:45:23;26.03;68.79
65707;SHT31;52423;43.512;5.220;2023-09-18T05:47:49;26.06;68.56
65707;SHT31;52423;43.512;5.220;2023-09-18T05:50:15;26.10;68.55
65707;SHT31;52423;43.512;5.220;2023-09-18T05:52:46;26.09;68.77
65707;SHT31;52423;43.512;5.220;2023-09-18T05:55:14;26.09;68.82
65707;SHT31;52423;43.512;5.220;2023-09-18T05:57:40;26.06;68.73
65707;SHT31;52423;43.512;5.220;2023-09-18T06:00:06;26.04;68.55
65707;SHT31;52423;43.512;5.220;2023-09-18T06:02:31;26.07;68.47
65707;SHT31;52423;43.512;5.220;2023-09-18T06:04:58;26.03;68.48
65707;SHT31;52423;43.512;5.220;2023-09-18T06:07:29;26.06;68.30
65707;SHT31;52423;43.512;5.220;2023-09-18T06:09:56;26.03;68.40
65707;SHT31;52423;43.512;5.220;2023-09-18T06:12:21;26.03;68.27
65707;SHT31;52423;43.512;5.220;2023-09-18T06:14:47;26.04;68.28
65707;SHT31;52423;43.512;5.220;2023-09-18T06:17:14;26.07;68.42
65707;SHT31;52423;43.512;5.220;2023-09-18T06:19:40;26.06;68.47
65707;SHT31;52423;43.512;5.220;2023-09-18T06:22:06;26.07;68.09
65707;SHT31;52423;43.512;5.220;2023-09-18T06:24:32;26.03;68.29
65707;SHT31;52423;43.512;5.220;2023-09-18T06:26:57;26.03;68.35
65707;SHT31;52423;43.512;5.220;2023-09-18T06:29:23;26.04;68.42
65707;SHT31;52423;43.512;5.220;2023-09-18T06:31:49;26.06;68.32
65707;SHT31;52423;43.512;5.220;2023-09-18T06:34:16;26.06;68.64
65707;SHT31;52423;43.512;5.220;2023-09-18T06:36:41;26.07;68.74
65707;SHT31;52423;43.512;5.220;2023-09-18T06:39:06;26.07;68.78
65707;SHT31;52423;43.512;5.220;2023-09-18T06:41:32;26.04;68.30
65707;SHT31;52423;43.512;5.220;2023-09-18T06:43:58;26.03;68.45
65707;SHT31;52423;43.512;5.220;2023-09-18T06:46:28;26.06;68.56
65707;SHT31;52423;43.512;5.220;2023-09-18T06:48:53;26.06;68.10
65707;SHT31;52423;43.512;5.220;2023-09-18T06:51:18;26.04;67.88
65707;SHT31;52423;43.512;5.220;2023-09-18T06:53:44;26.06;68.07
65707;SHT31;52423;43.512;5.220;2023-09-18T06:56:10;26.09;68.12
65707;SHT31;52423;43.512;5.220;2023-09-18T06:58:35;26.07;68.16
65707;SHT31;52423;43.512;5.220;2023-09-18T07:01:01;26.09;68.12
65707;SHT31;52423;43.512;5.220;2023-09-18T07:03:26;26.06;68.19
65707;SHT31;52423;43.512;5.220;2023-09-18T07:05:52;26.09;68.22
65707;SHT31;52423;43.512;5.220;2023-09-18T07:08:17;26.12;68.29
65707;SHT31;52423;43.512;5.220;2023-09-18T07:10:49;26.12;68.23
65707;SHT31;52423;43.512;5.220;2023-09-18T07:13:15;26.16;68.32
65707;SHT31;52423;43.512;5.220;2023-09-18T07:15:40;26.13;68.23
65707;SHT31;52423;43.512;5.220;2023-09-18T07:18:06;26.16;68.23
65707;SHT31;52423;43.512;5.220;2023-09-18T07:20:32;26.14;68.17
65707;SHT31;52423;43.512;5.220;2023-09-18T07:22:57;26.14;68.17
65707;SHT31;52423;43.512;5.220;2023-09-18T07:25:23;26.16;68.15
65707;SHT31;52423;43.512;5.220;2023-09-18T07:27:48;26.16;68.05
65707;SHT31;52423;43.512;5.220;2023-09-18T07:30:14;26.17;68.13
65707;SHT31;52423;43.512;5.220;2023-09-18T07:32:45;26.19;68.12
65707;SHT31;52423;43.512;5.220;2023-09-18T07:35:11;26.16;68.03
65707;SHT31;52423;43.512;5.220;2023-09-18T07:37:36;26.19;67.97
65707;SHT31;52423;43.512;5.220;2023-09-18T07:40:04;26.19;67.95
65707;SHT31;52423;43.512;5.220;2023-09-18T07:42:29;26.22;68.02
65707;SHT31;52423;43.512;5.220;2023-09-18T07:44:54;26.20;67.91
65707;SHT31;52423;43.512;5.220;2023-09-18T07:47:20;26.20;67.96
65707;SHT31;52423;43.512;5.220;2023-09-18T07:49:46;26.20;67.88
65707;SHT31;52423;43.512;5.220;2023-09-18T07:52:11;26.20;67.94
65707;SHT31;52423;43.512;5.220;2023-09-18T07:54:37;26.24;67.94
65707;SHT31;52423;43.512;5.220;2023-09-18T07:57:02;26.24;67.77
65707;SHT31;52423;43.512;5.220;2023-09-18T07:59:28;26.23;67.76
65707;SHT31;52423;43.512;5.220;2023-09-18T08:01:54;26.23;67.78
65707;SHT31;52423;43.512;5.220;2023-09-18T08:04:20;26.26;67.79
65707;SHT31;52423;43.512;5.220;2023-09-18T08:06:45;26.24;67.80
65707;SHT31;52423;43.512;5.220;2023-09-18T08:09:11;26.29;67.79
65707;SHT31;52423;43.512;5.220;2023-09-18T08:11:38;26.27;67.74
65707;SHT31;52423;43.512;5.220;2023-09-18T08:14:07;26.30;67.67
65707;SHT31;52423;43.512;5.220;2023-09-18T08:16:33;26.30;67.61
65707;SHT31;52423;43.512;5.220;2023-09-18T08:19:00;26.30;67.55
65707;SHT31;52423;43.512;5.220;2023-09-18T08:21:26;26.34;67.41
65707;SHT31;52423;43.512;5.220;2023-09-18T08:23:54;26.37;67.39
65707;SHT31;52423;43.512;5.220;2023-09-18T08:26:19;26.37;67.38
65707;SHT31;52423;43.512;5.220;2023-09-18T08:28:46;26.37;67.29
65707;SHT31;52423;43.512;5.220;2023-09-18T08:31:11;26.40;67.23
65707;SHT31;52423;43.512;5.220;2023-09-18T08:33:37;26.40;67.20
65707;SHT31;52423;43.512;5.220;2023-09-18T08:36:02;26.43;67.21
65707;SHT31;52423;43.512;5.220;2023-09-18T08:38:28;26.47;67.08
65707;SHT31;52423;43.512;5.220;2023-09-18T08:40:54;26.53;67.05
65707;SHT31;52423;43.512;5.220;2023-09-18T08:43:21;26.51;67.00
65707;SHT31;52423;43.512;5.220;2023-09-18T08:45:54;26.54;67.03
65707;SHT31;52423;43.512;5.220;2023-09-18T08:48:21;26.54;67.03
65707;SHT31;52423;43.512;5.220;2023-09-18T08:50:50;26.54;66.94
65707;SHT31;52423;43.512;5.220;2023-09-18T08:53:16;26.55;67.00
65707;SHT31;52423;43.512;5.220;2023-09-18T08:55:42;26.57;66.95
65707;SHT31;52423;43.512;5.220;2023-09-18T08:58:08;26.61;66.92
65707;SHT31;52423;43.512;5.220;2023-09-18T09:00:33;26.58;67.06
65707;SHT31;52423;43.512;5.220;2023-09-18T09:03:03;26.61;67.51
65707;SHT31;52423;43.512;5.220;2023-09-18T09:05:29;26.67;67.86
65707;SHT31;52423;43.512;5.220;2023-09-18T09:07:55;26.65;67.73
65707;SHT31;52423;43.512;5.220;2023-09-18T09:10:21;26.65;67.60
65707;SHT31;52423;43.512;5.220;2023-09-18T09:15:16;26.67;67.94
65707;SHT31;52423;43.512;5.220;2023-09-18T09:17:42;26.65;68.01
65707;SHT31;52423;43.512;5.220;2023-09-18T09:20:12;26.63;67.89
65707;SHT31;52423;43.512;5.220;2023-09-18T09:22:39;26.64;67.82
65707;SHT31;52423;43.512;5.220;2023-09-18T09:25:24;26.61;67.73
65707;SHT31;52423;43.512;5.220;2023-09-18T09:27:52;26.63;67.89
65707;SHT31;52423;43.512;5.220;2023-09-18T09:30:23;26.61;67.99
65707;SHT31;52423;43.512;5.220;2023-09-18T09:32:50;26.60;68.12
65707;SHT31;52423;43.512;5.220;2023-09-18T09:35:36;26.60;68.09
65707;SHT31;52423;43.512;5.220;2023-09-18T09:38:10;26.63;68.52
65707;SHT31;52423;43.512;5.220;2023-09-18T09:40:39;26.67;68.79
65707;SHT31;52423;43.512;5.220;2023-09-18T09:43:08;26.71;68.49
65707;SHT31;52423;43.512;5.220;2023-09-18T09:45:34;26.71;68.67
65707;SHT31;52423;43.512;5.220;2023-09-18T09:48:04;26.67;68.04
65707;SHT31;52423;43.512;5.220;2023-09-18T09:50:31;26.67;68.33
65707;SHT31;52423;43.512;5.220;2023-09-18T09:52:57;26.65;68.17
65707;SHT31;52423;43.512;5.220;2023-09-18T09:55:30;26.65;68.28
65707;SHT31;52423;43.512;5.220;2023-09-18T09:58:00;26.65;68.32
65707;SHT31;52423;43.512;5.220;2023-09-18T10:00:31;26.67;68.30
65707;SHT31;52423;43.512;5.220;2023-09-18T10:03:01;26.65;67.87
65707;SHT31;52423;43.512;5.220;2023-09-18T10:05:32;26.70;67.82
65707;SHT31;52423;43.512;5.220;2023-09-18T10:08:01;26.70;68.12
65707;SHT31;52423;43.512;5.220;2023-09-18T10:10:36;26.71;67.85
65707;SHT31;52423;43.512;5.220;2023-09-18T10:13:14;26.71;67.88
65707;SHT31;52423;43.512;5.220;2023-09-18T10:15:42;26.75;67.87
65707;SHT31;52423;43.512;5.220;2023-09-18T10:18:17;26.74;67.99
65707;SHT31;52423;43.512;5.220;2023-09-18T10:20:44;26.81;68.20
65707;SHT31;52423;43.512;5.220;2023-09-18T10:23:21;26.87;67.71
65707;SHT31;52423;43.512;5.220;2023-09-18T10:25:54;26.81;67.97
65707;SHT31;52423;43.512;5.220;2023-09-18T10:28:23;26.81;67.92
65707;SHT31;52423;43.512;5.220;2023-09-18T10:30:48;26.77;67.82
65707;SHT31;52423;43.512;5.220;2023-09-18T10:33:16;26.77;67.76
65707;SHT31;52423;43.512;5.220;2023-09-18T10:35:42;26.77;67.75
65707;SHT31;52423;43.512;5.220;2023-09-18T10:38:09;26.77;67.84
65707;SHT31;52423;43.512;5.220;2023-09-18T10:40:36;26.77;67.85
65707;SHT31;52423;43.512;5.220;2023-09-18T10:43:04;26.77;67.86
65707;SHT31;52423;43.512;5.220;2023-09-18T10:45:34;26.77;67.93
65707;SHT31;52423;43.512;5.220;2023-09-18T10:48:00;26.75;67.95
65707;SHT31;52423;43.512;5.220;2023-09-18T10:50:27;26.78;68.20
65707;SHT31;52423;43.512;5.220;2023-09-18T10:52:52;26.80;67.97
65707;SHT31;52423;43.512;5.220;2023-09-18T10:55:18;26.81;68.00
65707;SHT31;52423;43.512;5.220;2023-09-18T10:57:55;26.80;67.92
65707;SHT31;52423;43.512;5.220;2023-09-18T11:00:22;26.80;68.05
65707;SHT31;52423;43.512;5.220;2023-09-18T11:03:15;26.80;67.97
65707;SHT31;52423;43.512;5.220;2023-09-18T11:05:39;26.81;68.05
65707;SHT31;52423;43.512;5.220;2023-09-18T11:08:28;26.82;68.02
65707;SHT31;52423;43.512;5.220;2023-09-18T11:11:00;26.84;68.04
65707;SHT31;52423;43.512;5.220;2023-09-18T11:13:34;26.90;68.08
65707;SHT31;52423;43.512;5.220;2023-09-18T11:16:12;26.92;67.94
65707;SHT31;52423;43.512;5.220;2023-09-18T11:18:38;26.94;67.79
65707;SHT31;52423;43.512;5.220;2023-09-18T11:21:11;26.74;66.84
65707;SHT31;52423;43.512;5.220;2023-09-18T11:23:38;26.45;66.45
65707;SHT31;52423;43.512;5.220;2023-09-18T11:26:08;26.20;65.77
65707;SHT31;52423;43.512;5.220;2023-09-18T11:28:34;26.07;65.52
65707;SHT31;52423;43.512;5.220;2023-09-18T11:31:00;26.00;65.21
65707;SHT31;52423;43.512;5.220;2023-09-18T11:33:30;26.02;64.60
65707;SHT31;52423;43.512;5.220;2023-09-18T11:35:56;25.90;63.96
65707;SHT31;52423;43.512;5.220;2023-09-18T11:38:21;25.90;63.43
65707;SHT31;52423;43.512;5.220;2023-09-18T11:40:48;25.88;63.37
65707;SHT31;52423;43.512;5.220;2023-09-18T11:43:22;25.81;63.25
65707;SHT31;52423;43.512;5.220;2023-09-18T11:45:55;25.81;62.96
65707;SHT31;52423;43.512;5.220;2023-09-18T11:48:23;25.76;62.61
65707;SHT31;52423;43.512;5.220;2023-09-18T11:50:59;25.69;62.00
65707;SHT31;52423;43.512;5.220;2023-09-18T11:53:27;25.63;61.72
65707;SHT31;52423;43.512;5.220;2023-09-18T11:55:52;25.52;61.33
65707;SHT31;52423;43.512;5.220;2023-09-18T11:58:18;25.49;61.35
65707;SHT31;52423;43.512;5.220;2023-09-18T12:00:48;25.44;61.08
65707;SHT31;52423;43.512;5.220;2023-09-18T12:03:19;25.38;61.08
65707;SHT31;52423;43.512;5.220;2023-09-18T12:05:56;25.35;60.75
65707;SHT31;52423;43.512;5.220;2023-09-18T12:08:23;25.41;60.50
65707;SHT31;52423;43.512;5.220;2023-09-18T12:10:54;25.41;60.18
65707;SHT31;52423;43.512;5.220;2023-09-18T12:13:20;25.30;60.09
65707;SHT31;52423;43.512;5.220;2023-09-18T12:15:49;25.28;60.07
65707;SHT31;52423;43.512;5.220;2023-09-18T12:18:15;25.24;59.91
65707;SHT31;52423;43.512;5.220;2023-09-18T12:20:48;25.24;59.67
65707;SHT31;52423;43.512;5.220;2023-09-18T12:23:15;25.44;59.97
65707;SHT31;52423;43.512;5.220;2023-09-18T12:25:41;25.62;60.23
65707;SHT31;52423;43.512;5.220;2023-09-18T12:28:07;25.69;60.03
65707;SHT31;52423;43.512;5.220;2023-09-18T12:30:34;25.75;60.27
65707;SHT31;52423;43.512;5.220;2023-09-18T12:32:59;25.73;60.59
65707;SHT31;52423;43.512;5.220;2023-09-18T12:35:25;25.76;60.93
65707;SHT31;52423;43.512;5.220;2023-09-18T12:37:55;25.88;61.03
65707;SHT31;52423;43.512;5.220;2023-09-18T12:40:26;25.83;61.25
65707;SHT31;52423;43.512;5.220;2023-09-18T12:42:57;25.83;61.54
65707;SHT31;52423;43.512;5.220;2023-09-18T12:45:24;25.88;61.53
65707;SHT31;52423;43.512;5.220;2023-09-18T12:47:50;25.86;61.71
65707;SHT31;52423;43.512;5.220;2023-09-18T12:50:16;26.03;62.73
65707;SHT31;52423;43.512;5.220;2023-09-18T12:52:41;25.97;63.29
65707;SHT31;52423;43.512;5.220;2023-09-18T12:55:08;25.97;63.30
65707;SHT31;52423;43.512;5.220;2023-09-18T12:57:34;26.07;63.82
65707;SHT31;52423;43.512;5.220;2023-09-18T12:59:59;26.14;63.30
65707;SHT31;52423;43.512;5.220;2023-09-18T13:02:35;26.14;63.38
65707;SHT31;52423;43.512;5.220;2023-09-18T13:05:01;26.13;63.21
65707;SHT31;52423;43.512;5.220;2023-09-18T13:07:26;26.10;63.92
65707;SHT31;52423;43.512;5.220;2023-09-18T13:10:21;26.09;63.59
65707;SHT31;52423;43.512;5.220;2023-09-18T13:12:49;26.07;63.80
65707;SHT31;52423;43.512;5.220;2023-09-18T13:15:29;26.06;63.68
65707;SHT31;52423;43.512;5.220;2023-09-18T13:17:56;26.07;63.41
65707;SHT31;52423;43.512;5.220;2023-09-18T13:20:29;26.13;63.54
65707;SHT31;52423;43.512;5.220;2023-09-18T13:22:56;26.10;63.83
65707;SHT31;52423;43.512;5.220;2023-09-18T13:25:24;26.12;63.87
65707;SHT31;52423;43.512;5.220;2023-09-18T13:27:51;26.09;63.75
65707;SHT31;52423;43.512;5.220;2023-09-18T13:30:17;26.09;63.47
65707;SHT31;52423;43.512;5.220;2023-09-18T13:32:44;26.09;63.55
65707;SHT31;52423;43.512;5.220;2023-09-18T13:35:10;26.07;63.81
65707;SHT31;52423;43.512;5.220;2023-09-18T13:37:37;26.04;63.72
65707;SHT31;52423;43.512;5.220;2023-09-18T13:40:04;26.03;63.58
65707;SHT31;52423;43.512;5.220;2023-09-18T13:42:32;26.04;64.13
65707;SHT31;52423;43.512;5.220;2023-09-18T13:44:58;26.03;63.76
65707;SHT31;52423;43.512;5.220;2023-09-18T13:47:28;26.06;63.71
65707;SHT31;52423;43.512;5.220;2023-09-18T13:49:53;26.10;63.82
65707;SHT31;52423;43.512;5.220;2023-09-18T13:52:23;26.12;63.91
65707;SHT31;52423;43.512;5.220;2023-09-18T13:54:48;26.12;63.44
65707;SHT31;52423;43.512;5.220;2023-09-18T13:57:17;26.10;64.16
65707;SHT31;52423;43.512;5.220;2023-09-18T13:59:43;26.10;64.54
65707;SHT31;52423;43.512;5.220;2023-09-18T14:02:09;26.12;64.54
65707;SHT31;52423;43.512;5.220;2023-09-18T14:04:36;26.10;64.26
65707;SHT31;52423;43.512;5.220;2023-09-18T14:07:01;26.10;64.20
65707;SHT31;52423;43.512;5.220;2023-09-18T14:09:27;26.10;63.84
65707;SHT31;52423;43.512;5.220;2023-09-18T14:11:54;26.10;64.32
65707;SHT31;52423;43.512;5.220;2023-09-18T14:14:20;26.13;64.19
65707;SHT31;52423;43.512;5.220;2023-09-18T14:16:45;26.13;63.80
65707;SHT31;52423;43.512;5.220;2023-09-18T14:19:10;26.12;63.81
65707;SHT31;52423;43.512;5.220;2023-09-18T14:21:37;26.06;62.84
65707;SHT31;52423;43.512;5.220;2023-09-18T14:24:04;26.07;63.05
65707;SHT31;52423;43.512;5.220;2023-09-18T14:26:30;26.04;63.30
65707;SHT31;52423;43.512;5.220;2023-09-18T14:28:55;26.10;63.84
65707;SHT31;52423;43.512;5.220;2023-09-18T14:31:21;26.10;63.69
65707;SHT31;52423;43.512;5.220;2023-09-18T14:33:46;26.12;62.71
65707;SHT31;52423;43.512;5.220;2023-09-18T14:36:12;26.12;63.17
65707;SHT31;52423;43.512;5.220;2023-09-18T14:38:37;26.12;63.11
65707;SHT31;52423;43.512;5.220;2023-09-18T14:41:05;26.10;62.69
65707;SHT31;52423;43.512;5.220;2023-09-18T14:43:30;26.16;62.62
65707;SHT31;52423;43.512;5.220;2023-09-18T14:45:56;26.12;62.70
65707;SHT31;52423;43.512;5.220;2023-09-18T14:48:22;26.19;62.82
65707;SHT31;52423;43.512;5.220;2023-09-18T14:50:54;26.19;62.21
65707;SHT31;52423;43.512;5.220;2023-09-18T14:53:19;26.24;62.11
65707;SHT31;52423;43.512;5.220;2023-09-18T14:55:45;26.26;62.08
65707;SHT31;52423;43.512;5.220;2023-09-18T14:58:10;26.22;61.70
65707;SHT31;52423;43.512;5.220;2023-09-18T15:00:36;26.24;61.87
65707;SHT31;52423;43.512;5.220;2023-09-18T15:03:02;26.23;61.48
65707;SHT31;52423;43.512;5.220;2023-09-18T15:05:28;26.26;61.27
65707;SHT31;52423;43.512;5.220;2023-09-18T15:07:53;26.26;61.44
65707;SHT31;52423;43.512;5.220;2023-09-18T15:10:19;26.22;61.01
65707;SHT31;52423;43.512;5.220;2023-09-18T15:12:44;26.22;61.25
65707;SHT31;52423;43.512;5.220;2023-09-18T15:15:10;26.26;60.77
65707;SHT31;52423;43.512;5.220;2023-09-18T15:17:35;26.29;60.72
65707;SHT31;52423;43.512;5.220;2023-09-18T15:20:04;26.32;60.28
65707;SHT31;52423;43.512;5.220;2023-09-18T15:22:30;26.39;60.67
65707;SHT31;52423;43.512;5.220;2023-09-18T15:24:56;26.47;60.65
65707;SHT31;52423;43.512;5.220;2023-09-18T15:27:22;26.47;60.80
65707;SHT31;52423;43.512;5.220;2023-09-18T15:29:47;26.48;61.44
65707;SHT31;52423;43.512;5.220;2023-09-18T15:32:13;26.53;60.89
65707;SHT31;52423;43.512;5.220;2023-09-18T15:34:39;26.54;62.07